Time;durP1;ratioP1;P1;durP2;ratioP2;P2;SDS_P1;SDS_P2;PMS_P1;PMS_P2;Temp;Humidity;BMP_temperature;BMP_pressure;BME280_temperature;BME280_humidity;BME280_pressure;Samples;Min_cycle;Max_cycle;Signal;HPM_P1;HPM_P2
2023/02/05 00:00:25;;;;;;;50.53;18.75;;;1.40;99.90;;;;;;6156410;23;20029;-80
2023/02/05 00:03:15;;;;;;;41.40;17.30;;;1.30;99.90;;;;;;6154736;23;20030;-79
2023/02/05 00:06:05;;;;;;;43.63;19.70;;;1.20;99.90;;;;;;6135916;23;20037;-80
2023/02/05 00:08:59;;;;;;;46.28;19.48;;;1.20;99.90;;;;;;6154441;23;20086;-80
2023/02/05 00:11:46;;;;;;;45.30;21.40;;;1.10;99.90;;;;;;6133143;23;20100;-79
2023/02/05 00:14:34;;;;;;;64.55;22.85;;;1.20;99.90;;;;;;6154477;23;20037;-80
2023/02/05 00:17:21;;;;;;;48.33;21.40;;;1.30;99.90;;;;;;6156204;23;20087;-81
2023/02/05 00:20:11;;;;;;;45.63;19.75;;;1.30;99.90;;;;;;6152700;23;20115;-81
2023/02/05 00:22:58;;;;;;;47.30;19.20;;;1.30;99.90;;;;;;6154592;23;20025;-78
2023/02/05 00:25:46;;;;;;;44.40;20.10;;;1.40;99.90;;;;;;6153930;23;20053;-78
2023/02/05 00:28:36;;;;;;;47.17;20.25;;;1.40;99.90;;;;;;6158548;23;20120;-79
2023/02/05 00:31:24;;;;;;;47.08;18.08;;;1.40;99.90;;;;;;6153400;23;20056;-78
2023/02/05 00:34:14;;;;;;;37.15;16.55;;;1.30;99.90;;;;;;6153516;23;20025;-81
2023/02/05 00:37:02;;;;;;;40.05;15.32;;;1.30;99.90;;;;;;6133548;23;20025;-80
2023/02/05 00:39:52;;;;;;;37.47;14.88;;;1.20;99.90;;;;;;6132687;23;20362;-81
2023/02/05 00:42:39;;;;;;;39.55;16.35;;;1.20;99.90;;;;;;6155051;23;20479;-79
2023/02/05 00:45:34;;;;;;;33.00;14.80;;;1.20;99.90;;;;;;6154795;23;20040;-80
2023/02/05 00:48:22;;;;;;;36.33;15.38;;;1.20;99.90;;;;;;6154265;23;20560;-82
2023/02/05 00:51:11;;;;;;;40.33;15.65;;;1.20;99.90;;;;;;6154114;23;20060;-80
2023/02/05 00:53:59;;;;;;;37.60;14.55;;;1.20;99.90;;;;;;6152984;23;20386;-80
2023/02/05 00:56:46;;;;;;;44.65;17.23;;;1.20;99.90;;;;;;6153332;23;20030;-80
2023/02/05 00:59:35;;;;;;;41.47;15.82;;;1.20;99.90;;;;;;6153223;23;20061;-80
2023/02/05 01:02:23;;;;;;;42.28;16.15;;;1.20;99.90;;;;;;6153817;23;20306;-79
2023/02/05 01:05:11;;;;;;;39.90;16.35;;;1.20;99.90;;;;;;6132875;23;20419;-80
2023/02/05 01:08:00;;;;;;;39.67;14.55;;;1.20;99.90;;;;;;6155855;23;20025;-79
2023/02/05 01:10:49;;;;;;;28.58;13.00;;;1.20;99.90;;;;;;6153683;23;20025;-79
2023/02/05 01:13:37;;;;;;;32.42;13.20;;;1.20;99.90;;;;;;6133123;23;20060;-79
2023/02/05 01:16:24;;;;;;;31.70;12.70;;;1.10;99.90;;;;;;6160997;23;20048;-79
2023/02/05 01:19:12;;;;;;;34.40;12.73;;;1.10;99.90;;;;;;6154171;23;20112;-78
2023/02/05 01:22:00;;;;;;;29.98;12.02;;;1.10;99.90;;;;;;6154165;23;20088;-81
2023/02/05 01:24:49;;;;;;;33.53;12.50;;;1.10;99.90;;;;;;6154470;23;20021;-82
2023/02/05 01:27:36;;;;;;;36.38;12.43;;;1.10;99.90;;;;;;6154073;23;20120;-79
2023/02/05 01:30:26;;;;;;;32.55;13.35;;;1.00;99.90;;;;;;6154236;23;20029;-81
2023/02/05 01:33:19;;;;;;;33.40;12.57;;;1.00;99.90;;;;;;6152884;23;20079;-79
2023/02/05 01:36:07;;;;;;;30.25;12.60;;;0.90;99.90;;;;;;6156399;23;20140;-79
2023/02/05 01:38:54;;;;;;;28.67;12.85;;;0.80;99.90;;;;;;6133047;23;20025;-80
2023/02/05 01:41:44;;;;;;;30.33;12.15;;;0.80;99.90;;;;;;6135104;23;20032;-79
2023/02/05 01:44:31;;;;;;;36.42;12.75;;;0.80;99.90;;;;;;6155819;23;20029;-80
2023/02/05 01:47:19;;;;;;;36.30;13.98;;;0.80;99.90;;;;;;6155240;23;20033;-80
2023/02/05 01:50:06;;;;;;;31.23;11.43;;;0.80;99.90;;;;;;6134341;23;20065;-80
2023/02/05 01:52:56;;;;;;;28.98;12.20;;;0.70;99.90;;;;;;6132590;23;20054;-80
2023/02/05 01:55:52;;;;;;;33.47;11.40;;;0.70;99.90;;;;;;6155502;23;20026;-80
2023/02/05 01:59:02;;;;;;;33.13;11.35;;;0.70;99.90;;;;;;6154986;23;20625;-81
2023/02/05 02:01:52;;;;;;;30.48;10.70;;;0.70;99.90;;;;;;6155543;23;20037;-79
2023/02/05 02:04:54;;;;;;;39.63;11.30;;;0.80;99.90;;;;;;6165176;23;20021;-80
2023/02/05 02:07:41;;;;;;;30.23;11.43;;;0.80;99.90;;;;;;6157051;23;20042;-79
2023/02/05 02:10:30;;;;;;;39.22;13.65;;;0.70;99.90;;;;;;6155543;23;20090;-81
2023/02/05 02:13:23;;;;;;;36.33;13.02;;;0.70;99.90;;;;;;6135767;23;20025;-78
2023/02/05 02:16:11;;;;;;;30.85;10.35;;;0.70;99.90;;;;;;6156199;23;20047;-79
2023/02/05 02:18:58;;;;;;;35.28;10.98;;;0.70;99.90;;;;;;6158786;23;20076;-80
2023/02/05 02:22:08;;;;;;;32.38;10.10;;;0.60;99.90;;;;;;6155826;23;20029;-80
2023/02/05 02:24:58;;;;;;;26.58;10.27;;;0.70;99.90;;;;;;6135144;23;20033;-80
2023/02/05 02:27:48;;;;;;;23.73;10.32;;;0.70;99.90;;;;;;6156315;23;20293;-82
2023/02/05 02:30:50;;;;;;;33.20;11.57;;;0.70;99.90;;;;;;6154746;23;20033;-80
2023/02/05 02:33:49;;;;;;;32.78;11.60;;;0.70;99.90;;;;;;6155719;23;20386;-80
2023/02/05 02:37:15;;;;;;;26.20;9.77;;;0.70;99.90;;;;;;6154513;23;20021;-80
2023/02/05 02:40:26;;;;;;;32.67;9.75;;;0.80;99.90;;;;;;6156537;23;20428;-79
2023/02/05 02:43:42;;;;;;;29.95;9.13;;;0.90;99.90;;;;;;6157467;23;20084;-79
2023/02/05 02:46:43;;;;;;;25.58;9.18;;;0.90;99.90;;;;;;6158075;23;20424;-81
2023/02/05 02:49:42;;;;;;;27.85;9.88;;;0.90;99.90;;;;;;6154603;23;20088;-81
2023/02/05 02:52:41;;;;;;;28.42;10.07;;;0.90;99.90;;;;;;6161844;23;20104;-81
2023/02/05 02:55:35;;;;;;;26.48;9.43;;;1.00;99.90;;;;;;6136157;23;20119;-81
2023/02/05 02:58:44;;;;;;;24.90;10.02;;;1.00;99.90;;;;;;6133751;23;20123;-79
2023/02/05 03:01:41;;;;;;;33.83;12.10;;;1.00;99.90;;;;;;6154759;23;20101;-80
2023/02/05 03:04:42;;;;;;;36.05;11.90;;;1.00;99.90;;;;;;6156446;23;20025;-79
2023/02/05 03:07:37;;;;;;;28.30;11.60;;;1.00;99.90;;;;;;6154548;23;20100;-78
2023/02/05 03:10:48;;;;;;;26.75;12.40;;;1.00;99.90;;;;;;6155277;23;20392;-78
2023/02/05 03:13:43;;;;;;;27.77;11.52;;;1.00;99.90;;;;;;6134472;23;20029;-81
2023/02/05 03:16:30;;;;;;;27.65;11.98;;;0.90;99.90;;;;;;6155299;23;20022;-79
2023/02/05 03:19:19;;;;;;;35.70;12.32;;;0.90;99.90;;;;;;6154388;23;20025;-80
2023/02/05 03:22:07;;;;;;;27.00;10.18;;;0.80;99.90;;;;;;6135257;23;20153;-80
2023/02/05 03:24:54;;;;;;;34.72;10.60;;;0.70;99.90;;;;;;6134381;23;20087;-81
2023/02/05 03:27:50;;;;;;;35.35;10.98;;;0.70;99.90;;;;;;6155593;23;20109;-79
2023/02/05 03:30:55;;;;;;;28.10;10.23;;;0.70;99.90;;;;;;6155646;23;20041;-81
2023/02/05 03:33:56;;;;;;;34.72;10.93;;;0.70;99.90;;;;;;6155651;23;20033;-81
2023/02/05 03:36:55;;;;;;;45.80;12.52;;;0.80;99.90;;;;;;6154451;23;20021;-78
2023/02/05 03:39:48;;;;;;;31.63;10.68;;;0.90;99.90;;;;;;6158715;23;20030;-80
2023/02/05 03:42:54;;;;;;;28.73;10.85;;;0.90;99.90;;;;;;6160303;23;20029;-81
2023/02/05 03:45:59;;;;;;;33.45;14.32;;;0.90;99.90;;;;;;6134349;23;20043;-79
2023/02/05 03:48:52;;;;;;;32.08;12.63;;;0.90;99.90;;;;;;6154732;23;20033;-81
2023/02/05 03:52:13;;;;;;;23.95;11.10;;;0.80;99.90;;;;;;6155023;23;20029;-80
2023/02/05 03:55:12;;;;;;;29.88;12.15;;;0.70;99.90;;;;;;6155012;23;20104;-79
2023/02/05 03:58:09;;;;;;;36.00;12.88;;;0.60;99.90;;;;;;6154667;23;20040;-80
2023/02/05 04:00:56;;;;;;;29.85;12.10;;;0.60;99.90;;;;;;6154254;23;20035;-82
2023/02/05 04:03:52;;;;;;;33.00;11.88;;;0.40;99.90;;;;;;6153791;23;20017;-80
2023/02/05 04:06:40;;;;;;;31.75;11.63;;;0.30;99.90;;;;;;6152953;23;20025;-80
2023/02/05 04:09:29;;;;;;;33.33;11.90;;;0.10;99.90;;;;;;6154440;23;20452;-80
2023/02/05 04:12:16;;;;;;;29.23;12.80;;;0.00;99.90;;;;;;6153654;23;20333;-79
2023/02/05 04:15:04;;;;;;;37.17;11.88;;;-0.20;99.90;;;;;;6153404;23;20021;-79
2023/02/05 04:17:51;;;;;;;27.30;11.93;;;-0.30;99.90;;;;;;6155347;23;20471;-82
2023/02/05 04:20:38;;;;;;;26.23;11.95;;;-0.40;99.90;;;;;;6154962;23;20057;-80
2023/02/05 04:23:28;;;;;;;28.52;11.20;;;-0.50;99.90;;;;;;6155977;23;20053;-82
2023/02/05 04:26:15;;;;;;;26.20;11.23;;;-0.60;99.90;;;;;;6154459;23;20033;-82
2023/02/05 04:29:02;;;;;;;32.47;11.02;;;-0.70;99.90;;;;;;6160531;23;20034;-80
2023/02/05 04:31:49;;;;;;;37.25;13.38;;;-0.80;99.90;;;;;;6157033;23;20115;-80
2023/02/05 04:34:36;;;;;;;35.58;12.95;;;-0.80;99.90;;;;;;6156203;23;20743;-81
2023/02/05 04:37:24;;;;;;;43.60;14.30;;;-0.80;99.90;;;;;;6153902;23;20021;-80
2023/02/05 04:40:13;;;;;;;40.45;16.00;;;-0.80;99.90;;;;;;6155305;23;20328;-80
2023/02/05 04:43:02;;;;;;;36.40;15.70;;;-0.70;99.90;;;;;;6155486;23;20111;-80
2023/02/05 04:45:49;;;;;;;48.42;18.98;;;-0.80;99.90;;;;;;6156299;23;20056;-79
2023/02/05 04:48:40;;;;;;;42.42;16.65;;;-0.80;99.90;;;;;;6155598;23;20029;-81
2023/02/05 04:51:27;;;;;;;44.10;17.58;;;-0.70;99.90;;;;;;6166098;23;20033;-80
2023/02/05 04:54:14;;;;;;;52.85;17.80;;;-0.80;99.90;;;;;;6146235;23;20029;-80
2023/02/05 04:57:01;;;;;;;47.80;19.05;;;-0.80;99.90;;;;;;6164536;23;20033;-79
2023/02/05 04:59:51;;;;;;;40.50;16.98;;;-0.70;99.90;;;;;;6173699;23;20076;-79
2023/02/05 05:07:37;;;;;;;41.67;19.75;;;-0.50;99.90;;;;;;6164694;23;20009;-78
2023/02/05 05:10:24;;;;;;;45.90;19.10;;;-0.30;99.90;;;;;;6141383;23;20025;-77
2023/02/05 05:13:13;;;;;;;47.13;21.77;;;-0.10;99.90;;;;;;6142767;23;20081;-78
2023/02/05 05:16:01;;;;;;;45.65;20.35;;;0.00;99.90;;;;;;6147676;23;20032;-80
2023/02/05 05:18:52;;;;;;;44.88;20.42;;;0.00;99.90;;;;;;6173570;23;20499;-82
2023/02/05 05:21:41;;;;;;;47.20;20.60;;;0.00;99.90;;;;;;6184355;23;20025;-81
2023/02/05 05:24:28;;;;;;;50.83;20.88;;;0.10;99.90;;;;;;6185983;23;20025;-80
2023/02/05 05:27:17;;;;;;;46.90;19.80;;;0.00;99.90;;;;;;6184211;23;20040;-81
2023/02/05 05:30:05;;;;;;;46.50;21.15;;;0.10;99.90;;;;;;6163619;23;20064;-81
2023/02/05 05:32:52;;;;;;;40.63;20.30;;;0.20;99.90;;;;;;6185066;23;20308;-80
2023/02/05 05:35:39;;;;;;;65.90;21.50;;;0.30;99.90;;;;;;6184604;23;20352;-80
2023/02/05 05:38:30;;;;;;;47.13;19.90;;;0.30;99.90;;;;;;6184632;23;20047;-80
2023/02/05 05:44:29;;;;;;;41.25;18.35;;;0.20;99.90;;;;;;6184465;23;20036;-81
2023/02/05 05:47:17;;;;;;;47.55;17.98;;;0.20;99.90;;;;;;6184592;23;20461;-81
2023/02/05 05:50:05;;;;;;;42.38;19.02;;;0.30;99.90;;;;;;6164309;23;20168;-80
2023/02/05 05:52:54;;;;;;;55.88;21.52;;;0.30;99.90;;;;;;6184421;23;20060;-80
2023/02/05 05:55:42;;;;;;;47.28;20.10;;;0.30;99.90;;;;;;6185369;23;20104;-79
2023/02/05 05:58:29;;;;;;;61.70;21.05;;;0.30;99.90;;;;;;6164540;23;20076;-81
2023/02/05 06:01:20;;;;;;;50.30;20.85;;;0.20;99.90;;;;;;6183946;23;20021;-80
2023/02/05 06:04:10;;;;;;;47.80;20.88;;;0.20;99.90;;;;;;6183201;23;20357;-80
2023/02/05 06:07:12;;;;;;;56.03;20.50;;;0.20;99.90;;;;;;6190163;23;20033;-80
2023/02/05 06:10:00;;;;;;;49.42;19.65;;;0.20;99.90;;;;;;6164300;23;20025;-81
2023/02/05 06:12:47;;;;;;;50.22;21.00;;;0.20;99.90;;;;;;6185705;23;20044;-79
2023/02/05 06:15:34;;;;;;;48.60;19.42;;;0.30;99.90;;;;;;6178609;23;20026;-79
2023/02/05 06:18:25;;;;;;;45.53;19.27;;;0.30;99.90;;;;;;6153844;23;20026;-79
2023/02/05 06:21:12;;;;;;;46.90;19.13;;;0.30;99.90;;;;;;6153443;23;20097;-81
2023/02/05 06:23:59;;;;;;;37.72;18.60;;;0.30;99.90;;;;;;6148227;23;20036;-80
2023/02/05 06:26:46;;;;;;;46.72;17.25;;;0.30;99.90;;;;;;6156499;23;20033;-80
2023/02/05 06:29:34;;;;;;;42.28;17.10;;;0.30;99.90;;;;;;6159404;23;20030;-80
2023/02/05 06:32:21;;;;;;;48.10;20.25;;;0.40;99.90;;;;;;6159624;23;20039;-82
2023/02/05 06:35:08;;;;;;;51.83;19.35;;;0.40;99.90;;;;;;6164060;23;20313;-79
2023/02/05 06:37:58;;;;;;;43.95;18.52;;;0.50;99.90;;;;;;6159432;23;20049;-78
2023/02/05 06:40:47;;;;;;;51.72;19.95;;;0.60;99.90;;;;;;6163509;23;20022;-78
2023/02/05 06:43:34;;;;;;;41.53;19.48;;;0.70;99.90;;;;;;6161544;23;20389;-78
2023/02/05 06:46:28;;;;;;;55.13;22.73;;;0.70;99.90;;;;;;6156037;23;20040;-80
2023/02/05 06:49:15;;;;;;;67.80;26.75;;;0.70;99.90;;;;;;6156204;23;20101;-79
2023/02/05 06:52:03;;;;;;;63.97;26.13;;;0.80;99.90;;;;;;6157445;23;20040;-80
2023/02/05 06:54:52;;;;;;;63.15;23.65;;;0.70;99.90;;;;;;6166499;23;20084;-80
2023/02/05 06:57:39;;;;;;;57.00;20.83;;;0.70;99.90;;;;;;6137403;23;20053;-79
2023/02/05 07:00:27;;;;;;;48.20;20.05;;;0.80;99.90;;;;;;6156234;23;20053;-78
2023/02/05 07:03:14;;;;;;;45.30;18.70;;;0.80;99.90;;;;;;6135839;23;20414;-80
2023/02/05 07:06:03;;;;;;;49.15;18.60;;;0.90;99.90;;;;;;6154128;23;20080;-79
2023/02/05 07:08:54;;;;;;;43.47;17.80;;;1.00;99.90;;;;;;6155658;23;20061;-80
2023/02/05 07:11:41;;;;;;;39.67;16.52;;;1.10;99.90;;;;;;6164191;23;20025;-79
2023/02/05 07:23:26;;;;;;;37.35;14.75;;;1.20;99.90;;;;;;6037705;23;20082;-82
2023/02/05 07:26:16;;;;;;;33.85;15.90;;;1.20;99.90;;;;;;6039694;23;20325;-81
2023/02/05 07:29:05;;;;;;;43.55;16.75;;;1.30;99.90;;;;;;6039443;23;20114;-81
2023/02/05 07:31:53;;;;;;;36.40;14.25;;;1.30;99.90;;;;;;6038695;23;20023;-81
2023/02/05 07:34:40;;;;;;;34.42;14.85;;;1.30;99.90;;;;;;6037980;23;20033;-79
2023/02/05 07:37:27;;;;;;;35.17;15.15;;;1.30;99.90;;;;;;6078917;23;20038;-81
2023/02/05 07:40:16;;;;;;;27.48;12.55;;;1.40;99.90;;;;;;6095463;23;20062;-81
2023/02/05 07:43:04;;;;;;;29.13;13.15;;;1.40;99.90;;;;;;6103684;23;20031;-83
2023/02/05 07:46:50;;;;;;;31.08;12.82;;;1.30;99.90;;;;;;6095583;23;20374;-82
2023/02/05 07:49:58;;;;;;;35.95;13.57;;;1.40;99.90;;;;;;6113133;23;20441;-81
2023/02/05 07:56:54;;;;;;;;;;;1.30;99.90;;;;;;6136164;23;20375;-80
2023/02/05 08:00:31;;;;;;;34.75;12.65;;;1.40;99.90;;;;;;6154026;23;19967;-81
2023/02/05 08:03:56;;;;;;;25.70;8.83;;;1.50;99.90;;;;;;6156082;23;20026;-78
2023/02/05 08:07:36;;;;;;;30.73;10.73;;;1.50;99.90;;;;;;6098834;23;20281;-79
2023/02/05 08:20:33;;;;;;;36.13;11.63;;;1.80;99.90;;;;;;6147647;23;20064;-79
2023/02/05 08:23:48;;;;;;;30.85;10.95;;;1.90;99.90;;;;;;6156944;23;20064;-79
2023/02/05 08:27:11;;;;;;;25.30;11.00;;;2.00;99.90;;;;;;6153168;23;20030;-79
2023/02/05 08:39:09;;;;;;;39.22;13.77;;;2.20;99.90;;;;;;5873737;24;20051;-79
2023/02/05 08:45:47;;;;;;;33.92;10.50;;;2.50;99.90;;;;;;5979210;24;19942;-81
2023/02/05 08:49:10;;;;;;;41.55;10.65;;;2.50;99.90;;;;;;5927489;24;20032;-80
2023/02/05 09:00:41;;;;;;;20.27;9.93;;;2.40;99.90;;;;;;5953498;24;20872;-79
2023/02/05 09:04:11;;;;;;;34.03;10.23;;;2.40;99.90;;;;;;5985810;23;20035;-78
2023/02/05 09:07:05;;;;;;;28.88;9.95;;;2.40;1.00;;;;;;6008977;23;20103;-78
2023/02/05 09:09:58;;;;;;;30.33;10.77;;;2.40;1.00;;;;;;6019402;23;20091;-80
2023/02/05 09:13:11;;;;;;;26.48;11.48;;;2.50;1.00;;;;;;6037959;23;20044;-78
2023/02/05 09:15:59;;;;;;;32.03;11.57;;;2.60;99.90;;;;;;6037611;23;20031;-78
2023/02/05 09:18:55;;;;;;;31.08;10.63;;;2.70;99.90;;;;;;6047245;23;20059;-79
2023/02/05 09:22:17;;;;;;;28.00;10.35;;;2.80;1.00;;;;;;6082160;23;20047;-80
2023/02/05 09:25:32;;;;;;;27.80;10.43;;;2.90;1.00;;;;;;6137115;23;20036;-80
2023/02/05 09:28:23;;;;;;;36.00;12.38;;;2.80;99.90;;;;;;6163298;23;20083;-80
2023/02/05 09:31:20;;;;;;;30.42;11.02;;;2.60;99.90;;;;;;6162231;23;20440;-79
2023/02/05 09:34:20;;;;;;;25.48;11.13;;;2.50;5.30;;;;;;6162922;23;20040;-79
2023/02/05 09:37:17;;;;;;;24.20;10.20;;;2.40;99.90;;;;;;6163548;23;20115;-80
2023/02/05 09:40:17;;;;;;;31.83;11.63;;;2.30;99.90;;;;;;6162725;23;20416;-80
2023/02/05 09:43:20;;;;;;;31.52;12.32;;;2.30;99.90;;;;;;6163611;23;20144;-79
2023/02/05 09:46:55;;;;;;;29.58;12.30;;;2.30;99.90;;;;;;6163340;23;20037;-77
2023/02/05 09:50:01;;;;;;;26.95;11.27;;;2.20;99.90;;;;;;6159447;23;20040;-80
2023/02/05 09:53:17;;;;;;;30.52;12.30;;;2.20;99.90;;;;;;6163016;23;20120;-80
2023/02/05 09:56:11;;;;;;;28.13;11.07;;;2.30;99.90;;;;;;6162457;23;20320;-77
2023/02/05 09:59:02;;;;;;;34.72;12.43;;;2.30;99.90;;;;;;6158445;23;20026;-80
2023/02/05 10:01:53;;;;;;;33.50;13.00;;;2.30;99.90;;;;;;6164733;23;20138;-77
2023/02/05 10:04:41;;;;;;;28.13;12.57;;;2.20;99.90;;;;;;6166178;23;20715;-77
2023/02/05 10:07:31;;;;;;;27.67;11.60;;;2.30;99.90;;;;;;6195918;23;20053;-79
2023/02/05 10:11:04;;;;;;;43.30;12.93;;;2.30;99.90;;;;;;6162718;23;20040;-79
2023/02/05 10:14:15;;;;;;;33.47;12.68;;;2.30;99.90;;;;;;6076602;23;20038;-78
2023/02/05 10:17:10;;;;;;;33.17;12.73;;;2.30;99.90;;;;;;6096656;23;20109;-79
2023/02/05 10:20:20;;;;;;;34.33;13.45;;;2.30;99.90;;;;;;6164222;23;20024;-79
2023/02/05 10:23:24;;;;;;;39.42;14.02;;;2.30;99.90;;;;;;6186831;23;20091;-80
2023/02/05 10:26:13;;;;;;;35.13;13.35;;;2.30;99.90;;;;;;6182898;23;20024;-80
2023/02/05 10:29:11;;;;;;;34.88;15.73;;;2.20;99.90;;;;;;6136257;23;20029;-77
2023/02/05 10:32:43;;;;;;;39.13;16.83;;;2.30;99.90;;;;;;6135722;23;20088;-80
2023/02/05 10:36:00;;;;;;;44.33;14.15;;;2.30;99.90;;;;;;6110416;23;20049;-79
2023/02/05 10:38:52;;;;;;;27.35;11.60;;;2.40;99.90;;;;;;6135602;23;20033;-79
2023/02/05 10:41:47;;;;;;;29.88;12.40;;;2.40;99.90;;;;;;6136936;23;20105;-80
2023/02/05 10:44:42;;;;;;;31.58;12.57;;;2.50;99.90;;;;;;6133440;23;20041;-81
2023/02/05 10:47:52;;;;;;;24.35;11.15;;;2.50;99.90;;;;;;6156213;23;20029;-79
2023/02/05 10:50:46;;;;;;;30.80;12.30;;;2.60;99.90;;;;;;6155492;23;20022;-78
2023/02/05 10:53:35;;;;;;;39.15;14.75;;;2.70;99.90;;;;;;6158023;23;20032;-77
2023/02/05 10:56:22;;;;;;;36.78;12.93;;;2.80;99.90;;;;;;6142538;23;20032;-81
2023/02/05 10:59:28;;;;;;;34.28;13.38;;;2.90;99.90;;;;;;6155354;23;20030;-80
2023/02/05 11:02:16;;;;;;;39.30;12.60;;;2.90;99.90;;;;;;6135280;23;20438;-79
2023/02/05 11:05:31;;;;;;;32.22;14.13;;;2.90;99.90;;;;;;6154152;23;20337;-80
2023/02/05 11:08:33;;;;;;;32.33;14.52;;;2.90;99.90;;;;;;6133154;23;20104;-79
2023/02/05 11:11:30;;;;;;;33.88;13.85;;;2.90;99.90;;;;;;6134693;23;20057;-79
2023/02/05 11:14:44;;;;;;;27.90;12.02;;;2.90;99.90;;;;;;6155065;23;20040;-79
2023/02/05 11:17:39;;;;;;;28.73;12.63;;;3.00;99.90;;;;;;6155622;23;20029;-78
2023/02/05 11:20:29;;;;;;;30.83;13.43;;;3.00;99.90;;;;;;6133528;23;20025;-79
2023/02/05 11:23:20;;;;;;;27.65;13.00;;;2.90;99.90;;;;;;6155039;23;20439;-80
2023/02/05 11:26:22;;;;;;;28.30;12.85;;;2.90;99.90;;;;;;6125485;23;20472;-79
2023/02/05 11:29:23;;;;;;;27.38;13.32;;;2.80;99.90;;;;;;6137996;23;20120;-80
2023/02/05 11:32:31;;;;;;;39.55;14.63;;;2.70;99.90;;;;;;6135443;23;20037;-78
2023/02/05 11:35:34;;;;;;;34.80;13.38;;;2.70;99.90;;;;;;6157281;23;20040;-77
2023/02/05 11:38:36;;;;;;;35.95;14.88;;;2.70;99.90;;;;;;6139556;23;20120;-78
2023/02/05 11:41:47;;;;;;;35.13;13.18;;;2.70;99.90;;;;;;6137614;23;20076;-80
2023/02/05 11:44:45;;;;;;;46.67;17.85;;;2.70;99.90;;;;;;6134160;23;20109;-79
2023/02/05 11:47:41;;;;;;;29.80;16.25;;;2.80;99.90;;;;;;6134924;23;20032;-80
2023/02/05 11:50:31;;;;;;;41.88;15.50;;;2.90;99.90;;;;;;6133700;23;20124;-78
2023/02/05 11:53:34;;;;;;;24.98;13.32;;;3.00;99.90;;;;;;6133217;23;20172;-79
2023/02/05 11:56:24;;;;;;;27.08;12.38;;;3.00;99.90;;;;;;6133757;23;20032;-78
2023/02/05 11:59:25;;;;;;;26.65;11.60;;;3.00;99.90;;;;;;6153340;23;20447;-80
2023/02/05 12:02:31;;;;;;;29.55;12.10;;;3.10;99.90;;;;;;6134022;23;20039;-78
2023/02/05 12:05:25;;;;;;;29.00;11.07;;;3.10;99.90;;;;;;6153483;23;20200;-79
2023/02/05 12:08:42;;;;;;;23.80;11.77;;;3.20;99.90;;;;;;6154942;23;20113;-81
2023/02/05 12:12:15;;;;;;;27.10;10.93;;;3.20;99.90;;;;;;6133893;23;20427;-78
2023/02/05 12:15:23;;;;;;;24.48;11.32;;;3.20;99.90;;;;;;6138629;23;20101;-80
2023/02/05 12:18:29;;;;;;;27.00;11.38;;;3.20;99.90;;;;;;6152782;23;20116;-78
2023/02/05 12:21:41;;;;;;;24.85;11.38;;;3.30;99.90;;;;;;6155077;23;20439;-77
2023/02/05 12:24:53;;;;;;;21.88;9.90;;;3.30;99.90;;;;;;6133006;23;20026;-79
2023/02/05 12:27:41;;;;;;;25.98;11.88;;;3.30;99.90;;;;;;6154448;23;20039;-79
2023/02/05 12:30:31;;;;;;;28.27;14.25;;;3.40;99.90;;;;;;6152669;23;20495;-78
2023/02/05 12:33:43;;;;;;;22.20;12.30;;;3.30;99.90;;;;;;6155853;23;20033;-78
2023/02/05 12:36:46;;;;;;;28.90;15.07;;;3.30;99.90;;;;;;6152878;23;20025;-77
2023/02/05 12:39:45;;;;;;;34.50;14.05;;;3.20;99.90;;;;;;6156127;23;20093;-78
2023/02/05 12:42:58;;;;;;;36.75;14.38;;;3.10;99.90;;;;;;6154163;23;20029;-78
2023/02/05 12:46:27;;;;;;;26.85;13.65;;;3.10;99.90;;;;;;6154611;23;20428;-78
2023/02/05 12:49:23;;;;;;;32.47;15.38;;;3.00;99.90;;;;;;6145021;23;20025;-78
2023/02/05 12:52:20;;;;;;;35.78;17.25;;;3.10;99.90;;;;;;6153391;23;20029;-79
2023/02/05 12:55:19;;;;;;;23.55;10.82;;;3.00;99.90;;;;;;6152926;23;20344;-80
2023/02/05 12:58:16;;;;;;;21.55;10.43;;;3.10;99.90;;;;;;6153716;23;20025;-79
2023/02/05 13:01:10;;;;;;;19.83;10.40;;;3.10;99.90;;;;;;6138484;23;20013;-78
2023/02/05 13:04:00;;;;;;;20.63;9.55;;;3.10;99.90;;;;;;6156310;23;20027;-80
2023/02/05 13:07:07;;;;;;;18.27;10.07;;;3.10;99.90;;;;;;6153563;23;20084;-80
2023/02/05 13:10:00;;;;;;;19.50;9.52;;;3.10;99.90;;;;;;6133013;23;20424;-79
2023/02/05 13:12:56;;;;;;;15.52;9.57;;;3.10;99.90;;;;;;6154653;23;20064;-80
2023/02/05 13:15:56;;;;;;;13.55;8.57;;;3.20;99.90;;;;;;6134631;23;20025;-78
2023/02/05 13:19:12;;;;;;;13.63;8.07;;;3.20;99.90;;;;;;6154441;23;20022;-78
2023/02/05 13:29:04;;;;;;;11.70;6.80;;;3.20;99.90;;;;;;6153135;23;20055;-79
2023/02/05 13:31:56;;;;;;;14.68;6.80;;;3.20;99.90;;;;;;6152523;23;20412;-79
2023/02/05 13:34:53;;;;;;;19.98;10.55;;;3.10;99.90;;;;;;6154295;23;20036;-79
2023/02/05 13:38:00;;;;;;;17.27;8.70;;;3.10;99.90;;;;;;6131840;23;20025;-80
2023/02/05 13:41:09;;;;;;;14.93;8.80;;;3.10;99.90;;;;;;6152405;23;20057;-78
2023/02/05 13:44:18;;;;;;;13.48;9.13;;;3.10;99.90;;;;;;6133222;23;20036;-80
2023/02/05 13:47:47;;;;;;;12.15;7.68;;;3.10;99.90;;;;;;6154073;23;20412;-80
2023/02/05 13:50:44;;;;;;;12.18;7.45;;;3.10;99.90;;;;;;6120993;23;20029;-80
2023/02/05 13:53:57;;;;;;;11.10;6.57;;;3.00;99.90;;;;;;6152587;23;20025;-80
2023/02/05 13:56:47;;;;;;;12.55;6.40;;;3.00;99.90;;;;;;6155482;23;20025;-81
2023/02/05 13:59:50;;;;;;;12.45;6.20;;;3.00;99.90;;;;;;6155635;23;20464;-83
2023/02/05 14:02:47;;;;;;;8.32;5.70;;;3.10;99.90;;;;;;6153471;23;20076;-83
2023/02/05 14:05:38;;;;;;;9.60;6.32;;;3.10;99.90;;;;;;6154070;23;20025;-81
2023/02/05 14:08:30;;;;;;;10.95;6.57;;;3.00;99.90;;;;;;6153156;23;20029;-83
2023/02/05 14:11:22;;;;;;;9.13;6.95;;;2.90;99.90;;;;;;6155468;23;20037;-81
2023/02/05 14:14:21;;;;;;;9.38;6.43;;;2.80;99.90;;;;;;6154127;23;20093;-80
2023/02/05 14:17:26;;;;;;;9.27;6.10;;;2.70;99.90;;;;;;6154287;23;20431;-82
2023/02/05 14:20:23;;;;;;;8.20;5.95;;;2.60;99.90;;;;;;6133482;23;20026;-81
2023/02/05 14:23:44;;;;;;;11.50;6.25;;;2.60;99.90;;;;;;6154758;23;20018;-83
2023/02/05 14:26:48;;;;;;;7.50;5.17;;;2.50;99.90;;;;;;6153724;23;20033;-80
2023/02/05 14:29:46;;;;;;;10.25;6.47;;;2.30;99.90;;;;;;6133213;23;20737;-81
2023/02/05 14:32:40;;;;;;;12.15;8.13;;;2.20;99.90;;;;;;6152676;23;20029;-81
2023/02/05 14:35:30;;;;;;;11.85;6.93;;;2.10;99.90;;;;;;6134692;23;20087;-81
2023/02/05 14:38:30;;;;;;;14.82;6.78;;;2.10;99.90;;;;;;6142340;23;20025;-81
2023/02/05 14:41:18;;;;;;;9.50;6.32;;;2.10;99.90;;;;;;6132461;23;20032;-80
2023/02/05 14:44:37;;;;;;;12.68;7.20;;;2.20;99.90;;;;;;6153646;23;20661;-79
2023/02/05 14:47:32;;;;;;;10.20;7.18;;;2.20;99.90;;;;;;6156037;23;20475;-79
2023/02/05 14:50:26;;;;;;;10.60;6.72;;;2.30;99.90;;;;;;6133489;23;20491;-80
2023/02/05 14:53:28;;;;;;;11.77;7.70;;;2.20;99.90;;;;;;6155830;23;20032;-80
2023/02/05 14:56:33;;;;;;;10.05;6.70;;;2.20;99.90;;;;;;6157243;23;20025;-80
2023/02/05 14:59:54;;;;;;;10.20;6.70;;;2.30;99.90;;;;;;6155854;23;20049;-82
2023/02/05 15:03:04;;;;;;;10.15;6.63;;;2.30;99.90;;;;;;6155376;23;20048;-81
2023/02/05 15:05:55;;;;;;;10.50;6.78;;;2.30;99.90;;;;;;6156109;23;20029;-80
2023/02/05 15:09:13;;;;;;;10.23;6.95;;;2.30;99.90;;;;;;6134993;23;20115;-81
2023/02/05 15:12:09;;;;;;;8.95;6.47;;;2.30;99.90;;;;;;6133974;23;20029;-80
2023/02/05 15:15:17;;;;;;;10.77;6.25;;;2.30;99.90;;;;;;6155880;23;20107;-81
2023/02/05 15:18:40;;;;;;;8.02;6.13;;;2.30;99.90;;;;;;6155708;23;20025;-81
2023/02/05 15:21:39;;;;;;;7.55;6.10;;;2.30;99.90;;;;;;6134018;23;20033;-86
2023/02/05 15:24:34;;;;;;;8.98;5.85;;;2.30;99.90;;;;;;6136456;23;20040;-86
2023/02/05 15:27:30;;;;;;;11.05;6.78;;;2.30;99.90;;;;;;6155765;23;20417;-87
2023/02/05 15:30:24;;;;;;;10.05;6.45;;;2.30;99.90;;;;;;6157099;23;20036;-86
2023/02/05 15:33:22;;;;;;;8.63;5.78;;;2.30;99.90;;;;;;6154299;23;20026;-86
2023/02/05 15:36:18;;;;;;;8.35;5.95;;;2.30;99.90;;;;;;6155131;23;20096;-86
2023/02/05 15:39:36;;;;;;;7.80;6.00;;;2.20;99.90;;;;;;6157241;23;20087;-88
2023/02/05 15:42:42;;;;;;;8.40;6.03;;;2.20;99.90;;;;;;6154945;23;20029;-85
2023/02/05 15:45:39;;;;;;;6.88;5.78;;;2.10;99.90;;;;;;6157210;23;20120;-86
2023/02/05 15:48:32;;;;;;;8.65;6.00;;;2.10;99.90;;;;;;6154824;23;20025;-87
2023/02/05 15:51:32;;;;;;;9.07;6.32;;;2.10;99.90;;;;;;6155595;23;20041;-87
2023/02/05 15:54:20;;;;;;;8.52;6.05;;;2.10;99.90;;;;;;6154353;23;20487;-87
2023/02/05 15:57:20;;;;;;;7.68;5.93;;;2.10;99.90;;;;;;6133692;23;20065;-87
2023/02/05 16:00:09;;;;;;;8.43;6.93;;;2.10;99.90;;;;;;6156841;23;20033;-85
2023/02/05 16:03:05;;;;;;;9.65;6.65;;;2.10;99.90;;;;;;6155189;23;20025;-87
2023/02/05 16:05:53;;;;;;;12.13;7.55;;;2.10;99.90;;;;;;6154916;23;20097;-86
2023/02/05 16:08:45;;;;;;;9.38;6.90;;;2.00;99.90;;;;;;6156347;23;20029;-85
2023/02/05 16:11:36;;;;;;;10.65;7.60;;;2.00;99.90;;;;;;6156910;23;20312;-86